sensor_id;sensor_type;location;lat;lon;timestamp;P1;durP1;ratioP1;P2;durP2;ratioP2
462;SDS011;218;51.902;9.542;2024-02-16T00:00:23;5.13;;;2.30;;
462;SDS011;218;51.902;9.542;2024-02-16T00:02:50;6.43;;;2.47;;
462;SDS011;218;51.902;9.542;2024-02-16T00:05:21;5.40;;;2.00;;
462;SDS011;218;51.902;9.542;2024-02-16T00:07:48;3.05;;;2.00;;
462;SDS011;218;51.902;9.542;2024-02-16T00:10:15;4.57;;;2.90;;
462;SDS011;218;51.902;9.542;2024-02-16T00:12:45;12.65;;;2.67;;
462;SDS011;218;51.902;9.542;2024-02-16T00:15:14;5.87;;;2.40;;
462;SDS011;218;51.902;9.542;2024-02-16T00:17:41;4.30;;;1.80;;
462;SDS011;218;51.902;9.542;2024-02-16T00:20:11;5.30;;;2.27;;
462;SDS011;218;51.902;9.542;2024-02-16T00:22:39;4.88;;;2.40;;
462;SDS011;218;51.902;9.542;2024-02-16T00:25:07;4.20;;;2.27;;
462;SDS011;218;51.902;9.542;2024-02-16T00:27:34;4.70;;;2.00;;
462;SDS011;218;51.902;9.542;2024-02-16T00:30:02;5.05;;;1.90;;
462;SDS011;218;51.902;9.542;2024-02-16T00:32:31;2.63;;;2.42;;
462;SDS011;218;51.902;9.542;2024-02-16T00:35:00;3.13;;;1.90;;
462;SDS011;218;51.902;9.542;2024-02-16T00:37:30;4.70;;;1.90;;
462;SDS011;218;51.902;9.542;2024-02-16T00:39:57;4.95;;;1.50;;
462;SDS011;218;51.902;9.542;2024-02-16T00:42:24;3.10;;;2.40;;
462;SDS011;218;51.902;9.542;2024-02-16T00:44:53;5.78;;;2.10;;
462;SDS011;218;51.902;9.542;2024-02-16T00:47:22;5.40;;;2.53;;
462;SDS011;218;51.902;9.542;2024-02-16T00:49:52;3.80;;;1.98;;
462;SDS011;218;51.902;9.542;2024-02-16T00:52:21;2.40;;;2.20;;
462;SDS011;218;51.902;9.542;2024-02-16T00:54:48;5.30;;;2.10;;
462;SDS011;218;51.902;9.542;2024-02-16T00:57:15;2.53;;;2.00;;
462;SDS011;218;51.902;9.542;2024-02-16T00:59:43;2.80;;;1.70;;
462;SDS011;218;51.902;9.542;2024-02-16T01:02:10;4.30;;;1.93;;
462;SDS011;218;51.902;9.542;2024-02-16T01:04:37;2.17;;;1.73;;
462;SDS011;218;51.902;9.542;2024-02-16T01:07:06;3.20;;;1.95;;
462;SDS011;218;51.902;9.542;2024-02-16T01:09:33;2.42;;;2.20;;
462;SDS011;218;51.902;9.542;2024-02-16T01:12:00;2.63;;;1.60;;
462;SDS011;218;51.902;9.542;2024-02-16T01:14:28;3.50;;;1.70;;
462;SDS011;218;51.902;9.542;2024-02-16T01:16:58;3.50;;;1.70;;
462;SDS011;218;51.902;9.542;2024-02-16T01:19:25;7.00;;;2.05;;
462;SDS011;218;51.902;9.542;2024-02-16T01:21:53;2.33;;;1.60;;
462;SDS011;218;51.902;9.542;2024-02-16T01:24:24;1.88;;;1.58;;
462;SDS011;218;51.902;9.542;2024-02-16T01:26:51;3.30;;;1.85;;
462;SDS011;218;51.902;9.542;2024-02-16T01:29:19;3.10;;;1.73;;
462;SDS011;218;51.902;9.542;2024-02-16T01:31:46;2.57;;;1.50;;
462;SDS011;218;51.902;9.542;2024-02-16T01:34:14;3.63;;;1.80;;
462;SDS011;218;51.902;9.542;2024-02-16T01:36:42;3.97;;;1.57;;
462;SDS011;218;51.902;9.542;2024-02-16T01:39:10;2.70;;;1.50;;
462;SDS011;218;51.902;9.542;2024-02-16T01:41:40;1.77;;;1.67;;
462;SDS011;218;51.902;9.542;2024-02-16T01:44:08;2.30;;;1.30;;
462;SDS011;218;51.902;9.542;2024-02-16T01:46:36;3.17;;;1.77;;
462;SDS011;218;51.902;9.542;2024-02-16T01:49:06;2.70;;;1.80;;
462;SDS011;218;51.902;9.542;2024-02-16T01:51:33;1.70;;;1.58;;
462;SDS011;218;51.902;9.542;2024-02-16T01:54:02;1.67;;;1.50;;
462;SDS011;218;51.902;9.542;2024-02-16T01:56:29;2.10;;;1.70;;
462;SDS011;218;51.902;9.542;2024-02-16T01:59:01;2.90;;;1.50;;
462;SDS011;218;51.902;9.542;2024-02-16T02:01:30;2.40;;;1.60;;
462;SDS011;218;51.902;9.542;2024-02-16T02:03:58;2.00;;;1.43;;
462;SDS011;218;51.902;9.542;2024-02-16T02:06:25;1.85;;;1.40;;
462;SDS011;218;51.902;9.542;2024-02-16T02:08:52;2.75;;;1.77;;
462;SDS011;218;51.902;9.542;2024-02-16T02:11:21;3.83;;;1.50;;
462;SDS011;218;51.902;9.542;2024-02-16T02:13:48;3.85;;;1.60;;
462;SDS011;218;51.902;9.542;2024-02-16T02:16:16;1.50;;;1.40;;
462;SDS011;218;51.902;9.542;2024-02-16T02:18:46;1.48;;;1.35;;
462;SDS011;218;51.902;9.542;2024-02-16T02:21:13;3.13;;;1.53;;
462;SDS011;218;51.902;9.542;2024-02-16T02:23:44;1.70;;;1.50;;
462;SDS011;218;51.902;9.542;2024-02-16T02:26:14;2.67;;;1.50;;
462;SDS011;218;51.902;9.542;2024-02-16T02:28:44;2.08;;;1.40;;
462;SDS011;218;51.902;9.542;2024-02-16T02:31:11;1.50;;;1.30;;
462;SDS011;218;51.902;9.542;2024-02-16T02:33:39;1.90;;;1.40;;
462;SDS011;218;51.902;9.542;2024-02-16T02:36:07;1.80;;;1.70;;
462;SDS011;218;51.902;9.542;2024-02-16T02:38:34;3.45;;;1.45;;
462;SDS011;218;51.902;9.542;2024-02-16T02:41:03;2.10;;;1.97;;
462;SDS011;218;51.902;9.542;2024-02-16T02:43:30;1.30;;;1.20;;
462;SDS011;218;51.902;9.542;2024-02-16T02:46:00;4.00;;;1.67;;
462;SDS011;218;51.902;9.542;2024-02-16T02:48:28;10.93;;;2.10;;
462;SDS011;218;51.902;9.542;2024-02-16T02:50:55;11.43;;;2.63;;
462;SDS011;218;51.902;9.542;2024-02-16T02:53:24;5.18;;;2.30;;
462;SDS011;218;51.902;9.542;2024-02-16T02:55:56;13.97;;;3.40;;
462;SDS011;218;51.902;9.542;2024-02-16T02:58:26;10.75;;;2.17;;
462;SDS011;218;51.902;9.542;2024-02-16T03:00:56;10.18;;;2.80;;
462;SDS011;218;51.902;9.542;2024-02-16T03:03:24;7.13;;;2.50;;
462;SDS011;218;51.902;9.542;2024-02-16T03:05:52;6.57;;;2.70;;
462;SDS011;218;51.902;9.542;2024-02-16T03:08:20;6.50;;;1.90;;
462;SDS011;218;51.902;9.542;2024-02-16T03:10:47;5.10;;;2.20;;
462;SDS011;218;51.902;9.542;2024-02-16T03:13:14;7.67;;;2.60;;
462;SDS011;218;51.902;9.542;2024-02-16T03:15:44;6.07;;;2.25;;
462;SDS011;218;51.902;9.542;2024-02-16T03:18:11;6.13;;;2.00;;
462;SDS011;218;51.902;9.542;2024-02-16T03:20:40;8.05;;;4.10;;
462;SDS011;218;51.902;9.542;2024-02-16T03:23:11;3.47;;;2.27;;
462;SDS011;218;51.902;9.542;2024-02-16T03:25:38;7.70;;;1.90;;
462;SDS011;218;51.902;9.542;2024-02-16T03:28:07;3.53;;;1.73;;
462;SDS011;218;51.902;9.542;2024-02-16T03:30:35;3.55;;;1.85;;
462;SDS011;218;51.902;9.542;2024-02-16T03:33:04;7.07;;;1.93;;
462;SDS011;218;51.902;9.542;2024-02-16T03:35:32;5.40;;;2.28;;
462;SDS011;218;51.902;9.542;2024-02-16T03:38:02;4.10;;;1.60;;
462;SDS011;218;51.902;9.542;2024-02-16T03:40:30;4.25;;;1.77;;
462;SDS011;218;51.902;9.542;2024-02-16T03:42:57;5.97;;;2.40;;
462;SDS011;218;51.902;9.542;2024-02-16T03:45:36;4.10;;;1.60;;
462;SDS011;218;51.902;9.542;2024-02-16T03:48:06;4.23;;;2.10;;
462;SDS011;218;51.902;9.542;2024-02-16T03:50:33;6.00;;;2.20;;
462;SDS011;218;51.902;9.542;2024-02-16T03:53:01;3.08;;;1.90;;
462;SDS011;218;51.902;9.542;2024-02-16T03:55:30;5.40;;;1.60;;
462;SDS011;218;51.902;9.542;2024-02-16T03:58:01;4.75;;;1.90;;
462;SDS011;218;51.902;9.542;2024-02-16T04:00:29;3.70;;;1.70;;
462;SDS011;218;51.902;9.542;2024-02-16T04:02:58;4.13;;;2.00;;
462;SDS011;218;51.902;9.542;2024-02-16T04:05:27;8.07;;;2.45;;
462;SDS011;218;51.902;9.542;2024-02-16T04:07:57;4.30;;;1.77;;
462;SDS011;218;51.902;9.542;2024-02-16T04:10:27;2.58;;;1.50;;
462;SDS011;218;51.902;9.542;2024-02-16T04:12:54;4.73;;;2.57;;
462;SDS011;218;51.902;9.542;2024-02-16T04:15:22;5.20;;;2.40;;
462;SDS011;218;51.902;9.542;2024-02-16T04:17:52;2.30;;;1.40;;
462;SDS011;218;51.902;9.542;2024-02-16T04:20:19;11.70;;;2.93;;
462;SDS011;218;51.902;9.542;2024-02-16T04:22:48;10.15;;;2.80;;
462;SDS011;218;51.902;9.542;2024-02-16T04:25:18;12.38;;;3.35;;
462;SDS011;218;51.902;9.542;2024-02-16T04:27:45;8.93;;;2.50;;
462;SDS011;218;51.902;9.542;2024-02-16T04:30:13;14.70;;;3.95;;
462;SDS011;218;51.902;9.542;2024-02-16T04:32:41;12.95;;;2.50;;
462;SDS011;218;51.902;9.542;2024-02-16T04:35:10;6.70;;;2.67;;
462;SDS011;218;51.902;9.542;2024-02-16T04:37:37;10.93;;;3.55;;
462;SDS011;218;51.902;9.542;2024-02-16T04:40:08;8.18;;;3.08;;
462;SDS011;218;51.902;9.542;2024-02-16T04:42:37;7.50;;;2.47;;
462;SDS011;218;51.902;9.542;2024-02-16T04:45:07;7.90;;;2.03;;
462;SDS011;218;51.902;9.542;2024-02-16T04:47:34;6.67;;;2.67;;
462;SDS011;218;51.902;9.542;2024-02-16T04:50:01;9.40;;;2.50;;
462;SDS011;218;51.902;9.542;2024-02-16T04:52:29;5.70;;;2.80;;
462;SDS011;218;51.902;9.542;2024-02-16T04:54:59;8.73;;;2.40;;
462;SDS011;218;51.902;9.542;2024-02-16T04:57:29;8.73;;;2.20;;
462;SDS011;218;51.902;9.542;2024-02-16T04:59:56;5.03;;;2.03;;
462;SDS011;218;51.902;9.542;2024-02-16T05:02:23;7.63;;;2.00;;
462;SDS011;218;51.902;9.542;2024-02-16T05:04:54;3.53;;;1.90;;
462;SDS011;218;51.902;9.542;2024-02-16T05:07:22;3.70;;;2.30;;
462;SDS011;218;51.902;9.542;2024-02-16T05:09:50;3.63;;;1.63;;
462;SDS011;218;51.902;9.542;2024-02-16T05:12:23;7.27;;;2.57;;
462;SDS011;218;51.902;9.542;2024-02-16T05:14:53;12.07;;;4.50;;
462;SDS011;218;51.902;9.542;2024-02-16T05:17:22;8.98;;;3.10;;
462;SDS011;218;51.902;9.542;2024-02-16T05:19:49;8.25;;;3.30;;
462;SDS011;218;51.902;9.542;2024-02-16T05:22:17;9.07;;;3.55;;
462;SDS011;218;51.902;9.542;2024-02-16T05:24:47;11.43;;;2.30;;
462;SDS011;218;51.902;9.542;2024-02-16T05:27:14;9.30;;;3.07;;
462;SDS011;218;51.902;9.542;2024-02-16T05:29:42;7.65;;;2.45;;
462;SDS011;218;51.902;9.542;2024-02-16T05:32:11;9.90;;;2.83;;
462;SDS011;218;51.902;9.542;2024-02-16T05:34:39;7.63;;;2.70;;
462;SDS011;218;51.902;9.542;2024-02-16T05:37:07;6.83;;;3.30;;
462;SDS011;218;51.902;9.542;2024-02-16T05:39:36;9.63;;;2.80;;
462;SDS011;218;51.902;9.542;2024-02-16T05:42:18;5.70;;;2.60;;
462;SDS011;218;51.902;9.542;2024-02-16T05:44:47;5.68;;;2.60;;
462;SDS011;218;51.902;9.542;2024-02-16T05:47:16;6.10;;;2.37;;
462;SDS011;218;51.902;9.542;2024-02-16T05:49:45;6.07;;;2.42;;
462;SDS011;218;51.902;9.542;2024-02-16T05:52:12;3.83;;;2.40;;
462;SDS011;218;51.902;9.542;2024-02-16T05:54:47;5.43;;;2.07;;
462;SDS011;218;51.902;9.542;2024-02-16T05:57:15;9.85;;;2.92;;
462;SDS011;218;51.902;9.542;2024-02-16T05:59:43;6.43;;;2.72;;
462;SDS011;218;51.902;9.542;2024-02-16T06:02:11;9.45;;;2.20;;
462;SDS011;218;51.902;9.542;2024-02-16T06:04:44;6.00;;;2.40;;
462;SDS011;218;51.902;9.542;2024-02-16T06:07:12;6.90;;;2.30;;
462;SDS011;218;51.902;9.542;2024-02-16T06:09:40;2.47;;;1.92;;
462;SDS011;218;51.902;9.542;2024-02-16T06:12:08;3.40;;;1.53;;
462;SDS011;218;51.902;9.542;2024-02-16T06:14:36;9.27;;;2.58;;
462;SDS011;218;51.902;9.542;2024-02-16T06:17:04;2.63;;;1.90;;
462;SDS011;218;51.902;9.542;2024-02-16T06:19:33;6.95;;;1.80;;
462;SDS011;218;51.902;9.542;2024-02-16T06:22:02;3.42;;;2.10;;
462;SDS011;218;51.902;9.542;2024-02-16T06:24:31;4.27;;;2.20;;
462;SDS011;218;51.902;9.542;2024-02-16T06:27:02;7.50;;;2.67;;
462;SDS011;218;51.902;9.542;2024-02-16T06:29:30;8.38;;;2.92;;
462;SDS011;218;51.902;9.542;2024-02-16T06:31:58;6.83;;;2.40;;
462;SDS011;218;51.902;9.542;2024-02-16T06:34:27;9.00;;;2.93;;
462;SDS011;218;51.902;9.542;2024-02-16T06:36:54;11.60;;;2.93;;
462;SDS011;218;51.902;9.542;2024-02-16T06:39:25;7.30;;;2.40;;
462;SDS011;218;51.902;9.542;2024-02-16T06:41:55;9.10;;;3.10;;
462;SDS011;218;51.902;9.542;2024-02-16T06:44:23;5.33;;;2.47;;
462;SDS011;218;51.902;9.542;2024-02-16T06:46:51;6.30;;;2.57;;
462;SDS011;218;51.902;9.542;2024-02-16T06:49:18;5.70;;;2.40;;
462;SDS011;218;51.902;9.542;2024-02-16T06:51:45;11.20;;;2.60;;
462;SDS011;218;51.902;9.542;2024-02-16T06:54:13;5.87;;;2.30;;
462;SDS011;218;51.902;9.542;2024-02-16T06:56:45;5.70;;;2.88;;
462;SDS011;218;51.902;9.542;2024-02-16T06:59:12;7.70;;;2.90;;
462;SDS011;218;51.902;9.542;2024-02-16T07:01:40;5.90;;;3.13;;
462;SDS011;218;51.902;9.542;2024-02-16T07:04:07;5.18;;;2.33;;
462;SDS011;218;51.902;9.542;2024-02-16T07:06:36;3.60;;;2.23;;
462;SDS011;218;51.902;9.542;2024-02-16T07:09:04;5.65;;;2.40;;
462;SDS011;218;51.902;9.542;2024-02-16T07:11:32;4.80;;;2.63;;
462;SDS011;218;51.902;9.542;2024-02-16T07:14:01;4.72;;;2.50;;
462;SDS011;218;51.902;9.542;2024-02-16T07:16:29;9.83;;;4.57;;
462;SDS011;218;51.902;9.542;2024-02-16T07:18:58;12.00;;;3.40;;
462;SDS011;218;51.902;9.542;2024-02-16T07:21:25;13.13;;;4.40;;
462;SDS011;218;51.902;9.542;2024-02-16T07:23:52;8.70;;;3.40;;
462;SDS011;218;51.902;9.542;2024-02-16T07:26:20;11.13;;;3.47;;
462;SDS011;218;51.902;9.542;2024-02-16T07:28:49;7.18;;;3.40;;
462;SDS011;218;51.902;9.542;2024-02-16T07:31:20;15.07;;;4.43;;
462;SDS011;218;51.902;9.542;2024-02-16T07:33:48;9.52;;;3.10;;
462;SDS011;218;51.902;9.542;2024-02-16T07:36:15;11.45;;;4.20;;
462;SDS011;218;51.902;9.542;2024-02-16T07:38:45;9.17;;;3.60;;
462;SDS011;218;51.902;9.542;2024-02-16T07:41:15;17.43;;;3.27;;
462;SDS011;218;51.902;9.542;2024-02-16T07:43:45;10.75;;;3.78;;
462;SDS011;218;51.902;9.542;2024-02-16T07:46:14;7.53;;;3.00;;
462;SDS011;218;51.902;9.542;2024-02-16T07:48:43;8.37;;;3.20;;
462;SDS011;218;51.902;9.542;2024-02-16T07:51:10;8.93;;;4.78;;
462;SDS011;218;51.902;9.542;2024-02-16T07:53:41;8.53;;;3.67;;
462;SDS011;218;51.902;9.542;2024-02-16T07:56:09;7.43;;;2.93;;
462;SDS011;218;51.902;9.542;2024-02-16T07:58:37;3.00;;;2.47;;
462;SDS011;218;51.902;9.542;2024-02-16T08:01:04;7.28;;;2.80;;
462;SDS011;218;51.902;9.542;2024-02-16T08:03:32;6.23;;;3.30;;
462;SDS011;218;51.902;9.542;2024-02-16T08:06:02;7.30;;;3.10;;
462;SDS011;218;51.902;9.542;2024-02-16T08:08:30;7.63;;;2.93;;
462;SDS011;218;51.902;9.542;2024-02-16T08:10:57;6.32;;;2.67;;
462;SDS011;218;51.902;9.542;2024-02-16T08:13:24;8.55;;;3.92;;
462;SDS011;218;51.902;9.542;2024-02-16T08:15:52;6.32;;;2.90;;
462;SDS011;218;51.902;9.542;2024-02-16T08:18:20;3.78;;;3.00;;
462;SDS011;218;51.902;9.542;2024-02-16T08:20:47;6.05;;;3.30;;
462;SDS011;218;51.902;9.542;2024-02-16T08:23:16;5.38;;;2.92;;
462;SDS011;218;51.902;9.542;2024-02-16T08:25:45;3.72;;;2.35;;
462;SDS011;218;51.902;9.542;2024-02-16T08:28:12;2.50;;;2.10;;
462;SDS011;218;51.902;9.542;2024-02-16T08:30:40;4.25;;;2.67;;
462;SDS011;218;51.902;9.542;2024-02-16T08:33:09;5.70;;;2.90;;
462;SDS011;218;51.902;9.542;2024-02-16T08:35:37;3.90;;;2.50;;
462;SDS011;218;51.902;9.542;2024-02-16T08:38:05;5.63;;;2.70;;
462;SDS011;218;51.902;9.542;2024-02-16T08:40:37;3.40;;;2.40;;
462;SDS011;218;51.902;9.542;2024-02-16T08:43:04;3.70;;;2.70;;
462;SDS011;218;51.902;9.542;2024-02-16T08:45:33;4.30;;;2.60;;
462;SDS011;218;51.902;9.542;2024-02-16T08:48:01;2.95;;;2.50;;
462;SDS011;218;51.902;9.542;2024-02-16T08:50:29;3.90;;;2.50;;
462;SDS011;218;51.902;9.542;2024-02-16T08:52:56;2.97;;;2.30;;
462;SDS011;218;51.902;9.542;2024-02-16T08:55:24;2.73;;;2.53;;
462;SDS011;218;51.902;9.542;2024-02-16T08:57:54;3.93;;;2.60;;
462;SDS011;218;51.902;9.542;2024-02-16T09:00:24;3.87;;;2.67;;
462;SDS011;218;51.902;9.542;2024-02-16T09:02:53;2.70;;;2.00;;
462;SDS011;218;51.902;9.542;2024-02-16T09:05:23;3.08;;;2.50;;
462;SDS011;218;51.902;9.542;2024-02-16T09:07:50;4.30;;;2.50;;
462;SDS011;218;51.902;9.542;2024-02-16T09:10:18;3.03;;;2.40;;
462;SDS011;218;51.902;9.542;2024-02-16T09:12:50;3.40;;;2.28;;
462;SDS011;218;51.902;9.542;2024-02-16T09:15:22;3.60;;;2.03;;
462;SDS011;218;51.902;9.542;2024-02-16T09:17:49;2.53;;;2.20;;
462;SDS011;218;51.902;9.542;2024-02-16T09:20:24;3.20;;;2.40;;
462;SDS011;218;51.902;9.542;2024-02-16T09:22:53;3.13;;;2.83;;
462;SDS011;218;51.902;9.542;2024-02-16T09:25:22;2.60;;;2.40;;
462;SDS011;218;51.902;9.542;2024-02-16T09:27:50;4.07;;;2.47;;
462;SDS011;218;51.902;9.542;2024-02-16T09:30:23;4.13;;;2.87;;
462;SDS011;218;51.902;9.542;2024-02-16T09:32:51;2.78;;;2.30;;
462;SDS011;218;51.902;9.542;2024-02-16T09:35:19;4.90;;;2.60;;
462;SDS011;218;51.902;9.542;2024-02-16T09:37:47;4.17;;;2.57;;
462;SDS011;218;51.902;9.542;2024-02-16T09:40:15;2.33;;;2.13;;
462;SDS011;218;51.902;9.542;2024-02-16T09:42:47;2.90;;;2.60;;
462;SDS011;218;51.902;9.542;2024-02-16T09:45:15;2.83;;;2.50;;
462;SDS011;218;51.902;9.542;2024-02-16T09:47:44;2.95;;;2.60;;
462;SDS011;218;51.902;9.542;2024-02-16T09:50:11;3.23;;;2.47;;
462;SDS011;218;51.902;9.542;2024-02-16T09:52:46;3.38;;;2.50;;
462;SDS011;218;51.902;9.542;2024-02-16T09:55:14;3.13;;;2.57;;
462;SDS011;218;51.902;9.542;2024-02-16T09:57:43;2.85;;;2.58;;
462;SDS011;218;51.902;9.542;2024-02-16T10:00:12;2.40;;;2.20;;
462;SDS011;218;51.902;9.542;2024-02-16T10:02:40;2.90;;;2.70;;
462;SDS011;218;51.902;9.542;2024-02-16T10:05:14;2.63;;;2.42;;
462;SDS011;218;51.902;9.542;2024-02-16T10:07:42;3.55;;;2.65;;
462;SDS011;218;51.902;9.542;2024-02-16T10:10:19;2.77;;;2.57;;
462;SDS011;218;51.902;9.542;2024-02-16T10:12:47;2.28;;;1.92;;
462;SDS011;218;51.902;9.542;2024-02-16T10:15:19;2.83;;;2.50;;
462;SDS011;218;51.902;9.542;2024-02-16T10:17:56;2.80;;;2.60;;
462;SDS011;218;51.902;9.542;2024-02-16T10:20:26;3.15;;;2.85;;
462;SDS011;218;51.902;9.542;2024-02-16T10:23:06;3.15;;;2.60;;
462;SDS011;218;51.902;9.542;2024-02-16T10:25:34;2.97;;;2.70;;
462;SDS011;218;51.902;9.542;2024-02-16T10:28:05;3.00;;;2.80;;
462;SDS011;218;51.902;9.542;2024-02-16T10:30:34;2.93;;;2.50;;
462;SDS011;218;51.902;9.542;2024-02-16T10:33:02;3.78;;;3.03;;
462;SDS011;218;51.902;9.542;2024-02-16T10:35:32;2.60;;;2.40;;
462;SDS011;218;51.902;9.542;2024-02-16T10:37:59;3.80;;;2.40;;
462;SDS011;218;51.902;9.542;2024-02-16T10:40:30;2.63;;;2.43;;
462;SDS011;218;51.902;9.542;2024-02-16T10:42:58;3.08;;;2.50;;
462;SDS011;218;51.902;9.542;2024-02-16T10:45:28;3.13;;;2.83;;
462;SDS011;218;51.902;9.542;2024-02-16T10:47:56;4.73;;;2.87;;
462;SDS011;218;51.902;9.542;2024-02-16T10:50:25;2.85;;;2.15;;
462;SDS011;218;51.902;9.542;2024-02-16T10:52:55;6.07;;;2.87;;
462;SDS011;218;51.902;9.542;2024-02-16T10:55:24;2.70;;;2.50;;
462;SDS011;218;51.902;9.542;2024-02-16T10:57:51;3.20;;;2.40;;
462;SDS011;218;51.902;9.542;2024-02-16T11:00:20;2.47;;;2.20;;
462;SDS011;218;51.902;9.542;2024-02-16T11:02:54;2.90;;;2.40;;
462;SDS011;218;51.902;9.542;2024-02-16T11:05:34;3.60;;;2.50;;
462;SDS011;218;51.902;9.542;2024-02-16T11:08:04;3.00;;;2.80;;
462;SDS011;218;51.902;9.542;2024-02-16T11:10:31;3.45;;;3.15;;
462;SDS011;218;51.902;9.542;2024-02-16T11:13:02;9.73;;;2.83;;
462;SDS011;218;51.902;9.542;2024-02-16T11:15:32;2.97;;;2.73;;
462;SDS011;218;51.902;9.542;2024-02-16T11:18:00;2.53;;;2.37;;
462;SDS011;218;51.902;9.542;2024-02-16T11:20:29;2.92;;;2.63;;
462;SDS011;218;51.902;9.542;2024-02-16T11:23:06;3.60;;;2.67;;
462;SDS011;218;51.902;9.542;2024-02-16T11:25:38;2.70;;;2.50;;
462;SDS011;218;51.902;9.542;2024-02-16T11:28:06;3.40;;;2.63;;
462;SDS011;218;51.902;9.542;2024-02-16T11:30:33;3.05;;;2.70;;
462;SDS011;218;51.902;9.542;2024-02-16T11:33:01;3.30;;;2.60;;
462;SDS011;218;51.902;9.542;2024-02-16T11:35:30;3.10;;;2.80;;
462;SDS011;218;51.902;9.542;2024-02-16T11:37:57;3.00;;;2.80;;
462;SDS011;218;51.902;9.542;2024-02-16T11:40:28;2.78;;;2.40;;
462;SDS011;218;51.902;9.542;2024-02-16T11:42:57;3.60;;;3.27;;
462;SDS011;218;51.902;9.542;2024-02-16T11:45:25;2.92;;;2.70;;
462;SDS011;218;51.902;9.542;2024-02-16T11:48:02;3.17;;;2.80;;
462;SDS011;218;51.902;9.542;2024-02-16T11:50:30;3.60;;;2.90;;
462;SDS011;218;51.902;9.542;2024-02-16T11:52:58;4.00;;;2.97;;
462;SDS011;218;51.902;9.542;2024-02-16T11:55:25;3.50;;;3.10;;
462;SDS011;218;51.902;9.542;2024-02-16T11:57:54;3.07;;;2.87;;
462;SDS011;218;51.902;9.542;2024-02-16T12:00:23;3.88;;;3.33;;
462;SDS011;218;51.902;9.542;2024-02-16T12:02:58;3.83;;;3.00;;
462;SDS011;218;51.902;9.542;2024-02-16T12:05:26;3.47;;;3.17;;
462;SDS011;218;51.902;9.542;2024-02-16T12:07:57;4.20;;;3.83;;
462;SDS011;218;51.902;9.542;2024-02-16T12:10:29;4.50;;;3.20;;
462;SDS011;218;51.902;9.542;2024-02-16T12:12:58;3.97;;;3.22;;
462;SDS011;218;51.902;9.542;2024-02-16T12:15:28;3.80;;;3.35;;
462;SDS011;218;51.902;9.542;2024-02-16T12:17:59;6.53;;;3.20;;
462;SDS011;218;51.902;9.542;2024-02-16T12:20:27;3.15;;;2.85;;
462;SDS011;218;51.902;9.542;2024-02-16T12:22:55;3.60;;;3.00;;
462;SDS011;218;51.902;9.542;2024-02-16T12:25:24;3.60;;;3.30;;
462;SDS011;218;51.902;9.542;2024-02-16T12:27:53;4.00;;;3.60;;
462;SDS011;218;51.902;9.542;2024-02-16T12:30:24;4.90;;;3.30;;
462;SDS011;218;51.902;9.542;2024-02-16T12:32:53;3.60;;;2.90;;
462;SDS011;218;51.902;9.542;2024-02-16T12:35:21;3.93;;;3.37;;
462;SDS011;218;51.902;9.542;2024-02-16T12:37:49;3.40;;;3.10;;
462;SDS011;218;51.902;9.542;2024-02-16T12:40:17;4.93;;;2.90;;
462;SDS011;218;51.902;9.542;2024-02-16T12:42:45;3.42;;;3.03;;
462;SDS011;218;51.902;9.542;2024-02-16T12:45:13;3.50;;;3.20;;
462;SDS011;218;51.902;9.542;2024-02-16T12:47:42;3.60;;;3.30;;
462;SDS011;218;51.902;9.542;2024-02-16T12:50:11;5.65;;;3.50;;
462;SDS011;218;51.902;9.542;2024-02-16T12:52:38;5.90;;;3.60;;
462;SDS011;218;51.902;9.542;2024-02-16T12:55:06;4.75;;;3.20;;
462;SDS011;218;51.902;9.542;2024-02-16T12:57:35;4.20;;;3.63;;
462;SDS011;218;51.902;9.542;2024-02-16T13:00:03;4.20;;;3.10;;
462;SDS011;218;51.902;9.542;2024-02-16T13:02:31;3.35;;;3.05;;
462;SDS011;218;51.902;9.542;2024-02-16T13:05:00;4.15;;;3.40;;
462;SDS011;218;51.902;9.542;2024-02-16T13:07:27;3.70;;;3.00;;
462;SDS011;218;51.902;9.542;2024-02-16T13:09:55;4.85;;;3.30;;
462;SDS011;218;51.902;9.542;2024-02-16T13:12:22;3.50;;;3.20;;
462;SDS011;218;51.902;9.542;2024-02-16T13:14:52;4.03;;;3.20;;
462;SDS011;218;51.902;9.542;2024-02-16T13:17:19;3.13;;;2.90;;
462;SDS011;218;51.902;9.542;2024-02-16T13:19:49;3.80;;;3.40;;
462;SDS011;218;51.902;9.542;2024-02-16T13:25:06;3.88;;;2.92;;
462;SDS011;218;51.902;9.542;2024-02-16T13:27:34;3.93;;;3.57;;
462;SDS011;218;51.902;9.542;2024-02-16T13:30:02;4.35;;;3.35;;
462;SDS011;218;51.902;9.542;2024-02-16T13:32:33;4.00;;;3.55;;
462;SDS011;218;51.902;9.542;2024-02-16T13:35:05;4.65;;;3.20;;
462;SDS011;218;51.902;9.542;2024-02-16T13:37:33;3.38;;;3.00;;
462;SDS011;218;51.902;9.542;2024-02-16T13:40:02;4.32;;;3.25;;
462;SDS011;218;51.902;9.542;2024-02-16T13:42:33;3.23;;;2.83;;
462;SDS011;218;51.902;9.542;2024-02-16T13:45:03;4.20;;;3.80;;
462;SDS011;218;51.902;9.542;2024-02-16T13:47:31;3.60;;;3.30;;
462;SDS011;218;51.902;9.542;2024-02-16T13:49:58;4.18;;;3.80;;
462;SDS011;218;51.902;9.542;2024-02-16T13:52:26;3.58;;;3.28;;
462;SDS011;218;51.902;9.542;2024-02-16T13:54:53;9.73;;;4.70;;
462;SDS011;218;51.902;9.542;2024-02-16T13:57:21;13.93;;;6.07;;
462;SDS011;218;51.902;9.542;2024-02-16T13:59:50;15.65;;;6.40;;
462;SDS011;218;51.902;9.542;2024-02-16T14:02:20;17.27;;;5.90;;
462;SDS011;218;51.902;9.542;2024-02-16T14:04:49;11.15;;;6.82;;
462;SDS011;218;51.902;9.542;2024-02-16T14:07:16;11.30;;;5.43;;
462;SDS011;218;51.902;9.542;2024-02-16T14:09:43;13.30;;;5.80;;
462;SDS011;218;51.902;9.542;2024-02-16T14:12:13;10.43;;;5.70;;
462;SDS011;218;51.902;9.542;2024-02-16T14:14:41;12.20;;;5.80;;
462;SDS011;218;51.902;9.542;2024-02-16T14:17:10;11.10;;;5.30;;
462;SDS011;218;51.902;9.542;2024-02-16T14:19:38;14.00;;;5.60;;
462;SDS011;218;51.902;9.542;2024-02-16T14:22:07;12.90;;;6.10;;
462;SDS011;218;51.902;9.542;2024-02-16T14:24:37;8.63;;;4.40;;
462;SDS011;218;51.902;9.542;2024-02-16T14:27:04;9.80;;;4.63;;
462;SDS011;218;51.902;9.542;2024-02-16T14:29:32;13.95;;;4.90;;
462;SDS011;218;51.902;9.542;2024-02-16T14:31:59;6.97;;;4.40;;
462;SDS011;218;51.902;9.542;2024-02-16T14:34:29;7.07;;;4.75;;
462;SDS011;218;51.902;9.542;2024-02-16T14:36:59;8.50;;;4.07;;
462;SDS011;218;51.902;9.542;2024-02-16T14:39:32;7.35;;;4.30;;
462;SDS011;218;51.902;9.542;2024-02-16T14:41:59;9.70;;;3.93;;
462;SDS011;218;51.902;9.542;2024-02-16T14:44:27;7.40;;;4.40;;
462;SDS011;218;51.902;9.542;2024-02-16T14:46:55;8.40;;;4.50;;
462;SDS011;218;51.902;9.542;2024-02-16T14:49:22;6.73;;;3.80;;
462;SDS011;218;51.902;9.542;2024-02-16T14:51:53;10.98;;;4.65;;
462;SDS011;218;51.902;9.542;2024-02-16T14:54:23;8.00;;;4.03;;
462;SDS011;218;51.902;9.542;2024-02-16T14:56:52;7.72;;;4.43;;
462;SDS011;218;51.902;9.542;2024-02-16T14:59:20;5.53;;;3.70;;
462;SDS011;218;51.902;9.542;2024-02-16T15:01:48;6.80;;;3.90;;
462;SDS011;218;51.902;9.542;2024-02-16T15:04:18;8.10;;;4.50;;
462;SDS011;218;51.902;9.542;2024-02-16T15:06:46;6.07;;;4.47;;
462;SDS011;218;51.902;9.542;2024-02-16T15:09:15;7.35;;;4.00;;
462;SDS011;218;51.902;9.542;2024-02-16T15:11:42;5.95;;;3.90;;
462;SDS011;218;51.902;9.542;2024-02-16T15:14:09;7.55;;;4.22;;
462;SDS011;218;51.902;9.542;2024-02-16T15:16:38;5.53;;;4.43;;
462;SDS011;218;51.902;9.542;2024-02-16T15:19:06;10.57;;;4.22;;
462;SDS011;218;51.902;9.542;2024-02-16T15:21:35;5.82;;;3.42;;
462;SDS011;218;51.902;9.542;2024-02-16T15:24:05;4.70;;;3.80;;
462;SDS011;218;51.902;9.542;2024-02-16T15:26:36;3.60;;;3.30;;
462;SDS011;218;51.902;9.542;2024-02-16T15:29:04;4.22;;;3.30;;
462;SDS011;218;51.902;9.542;2024-02-16T15:31:32;5.10;;;4.10;;
462;SDS011;218;51.902;9.542;2024-02-16T15:34:00;4.63;;;3.22;;
462;SDS011;218;51.902;9.542;2024-02-16T15:36:28;5.87;;;3.20;;
462;SDS011;218;51.902;9.542;2024-02-16T15:38:56;5.80;;;3.90;;
462;SDS011;218;51.902;9.542;2024-02-16T15:41:26;6.10;;;3.30;;
462;SDS011;218;51.902;9.542;2024-02-16T15:44:00;4.63;;;3.40;;
462;SDS011;218;51.902;9.542;2024-02-16T15:46:27;6.45;;;3.33;;
462;SDS011;218;51.902;9.542;2024-02-16T15:48:55;5.80;;;3.33;;
462;SDS011;218;51.902;9.542;2024-02-16T15:51:22;3.97;;;3.67;;
462;SDS011;218;51.902;9.542;2024-02-16T15:53:51;8.88;;;3.65;;
462;SDS011;218;51.902;9.542;2024-02-16T15:56:18;4.80;;;3.63;;